Time;durP1;ratioP1;P1;durP2;ratioP2;P2;SDS_P1;SDS_P2;PMS_P1;PMS_P2;Temp;Humidity;BMP_temperature;BMP_pressure;BME280_temperature;BME280_humidity;BME280_pressure;Samples;Min_cycle;Max_cycle;Signal;HPM_P1;HPM_P2
2021/06/03 00:01:40;;;;;;;6.40;5.90;;;20.20;99.90;;;;;;4962468;28;20286;-67
2021/06/03 00:04:05;;;;;;;6.73;6.20;;;20.20;99.90;;;;;;4956563;28;20638;-66
2021/06/03 00:06:31;;;;;;;6.63;6.07;;;20.10;99.90;;;;;;4959842;28;20194;-66
2021/06/03 00:08:56;;;;;;;6.60;6.10;;;20.30;99.90;;;;;;4968953;28;20572;-66
2021/06/03 00:11:22;;;;;;;6.43;6.03;;;20.20;99.90;;;;;;4962240;28;20205;-66
2021/06/03 00:13:49;;;;;;;6.67;6.13;;;20.10;99.90;;;;;;4961517;28;20274;-67
2021/06/03 00:16:16;;;;;;;6.33;5.83;;;20.00;99.90;;;;;;4962014;28;20286;-66
2021/06/03 00:18:44;;;;;;;6.70;6.20;;;20.00;99.90;;;;;;4960520;28;20688;-68
2021/06/03 00:21:10;;;;;;;6.30;5.90;;;20.00;99.90;;;;;;4960863;28;20664;-67
2021/06/03 00:23:36;;;;;;;7.20;6.70;;;20.00;99.90;;;;;;4958949;28;20691;-67
2021/06/03 00:26:02;;;;;;;7.03;6.50;;;20.00;99.90;;;;;;4957364;28;20636;-66
2021/06/03 00:28:28;;;;;;;7.20;6.57;;;19.90;99.90;;;;;;4964345;28;20661;-67
2021/06/03 00:30:56;;;;;;;5.97;5.57;;;19.90;99.90;;;;;;4960675;28;21091;-66
2021/06/03 00:33:24;;;;;;;6.73;6.23;;;19.90;99.90;;;;;;4961888;28;20734;-66
2021/06/03 00:35:51;;;;;;;7.10;6.50;;;19.90;99.90;;;;;;4963414;28;20629;-67
2021/06/03 00:38:16;;;;;;;7.23;6.67;;;19.80;99.90;;;;;;4953422;28;20634;-66
2021/06/03 00:40:42;;;;;;;6.60;6.10;;;19.80;99.90;;;;;;4963374;28;20753;-66
2021/06/03 00:43:08;;;;;;;6.50;5.80;;;19.80;99.90;;;;;;4960372;28;20241;-66
2021/06/03 00:45:39;;;;;;;6.80;6.30;;;19.80;99.90;;;;;;4961367;28;20551;-67
2021/06/03 00:48:07;;;;;;;6.93;6.33;;;19.70;99.90;;;;;;4962187;28;20632;-66
2021/06/03 00:50:43;;;;;;;7.10;6.60;;;19.60;99.90;;;;;;4956290;28;20649;-66
2021/06/03 00:53:11;;;;;;;7.43;6.83;;;19.60;99.90;;;;;;4959463;28;20680;-66
2021/06/03 00:55:43;;;;;;;6.70;6.20;;;19.60;99.90;;;;;;4963087;28;20640;-66
2021/06/03 00:58:09;;;;;;;6.67;6.17;;;19.50;99.90;;;;;;4958812;28;21151;-67
2021/06/03 01:00:37;;;;;;;6.77;6.27;;;19.50;99.90;;;;;;4964944;28;20713;-66
2021/06/03 01:03:05;;;;;;;6.57;6.00;;;19.40;99.90;;;;;;4977647;28;20681;-66
2021/06/03 01:05:48;;;;;;;6.90;6.30;;;19.40;99.90;;;;;;4954892;28;21196;-65
2021/06/03 01:08:19;;;;;;;6.63;6.13;;;19.40;99.90;;;;;;4961420;28;21358;-66
2021/06/03 01:10:52;;;;;;;6.63;6.03;;;19.40;99.90;;;;;;4959602;28;20744;-66
2021/06/03 01:13:29;;;;;;;7.23;6.70;;;19.40;99.90;;;;;;4957369;28;20724;-65
2021/06/03 01:15:56;;;;;;;7.17;6.47;;;19.40;99.90;;;;;;4959752;28;20747;-67
2021/06/03 01:18:23;;;;;;;7.50;6.90;;;19.30;99.90;;;;;;4952575;28;20779;-67
2021/06/03 01:20:50;;;;;;;6.87;6.37;;;19.30;99.90;;;;;;4957684;28;20756;-66
2021/06/03 01:23:41;;;;;;;7.07;6.57;;;19.30;99.90;;;;;;4960018;28;20700;-67
2021/06/03 01:26:07;;;;;;;6.67;6.13;;;19.20;99.90;;;;;;4959142;28;20921;-67
2021/06/03 01:28:35;;;;;;;6.67;6.23;;;19.20;99.90;;;;;;4961120;28;20705;-66
2021/06/03 01:31:03;;;;;;;7.23;6.70;;;19.20;99.90;;;;;;4954122;28;20704;-66
2021/06/03 01:33:31;;;;;;;6.93;6.43;;;19.20;99.90;;;;;;4958599;28;20643;-67
2021/06/03 01:36:01;;;;;;;6.80;6.40;;;19.30;99.90;;;;;;4949911;28;20630;-66
2021/06/03 01:38:30;;;;;;;7.97;6.97;;;19.20;99.90;;;;;;4958192;28;20712;-66
2021/06/03 01:40:58;;;;;;;7.40;6.90;;;19.20;99.90;;;;;;4959144;28;20606;-66
2021/06/03 01:43:28;;;;;;;7.00;6.40;;;19.10;99.90;;;;;;4950911;28;20721;-66
2021/06/03 01:45:55;;;;;;;6.70;6.20;;;19.00;99.90;;;;;;4961385;28;20637;-67
2021/06/03 01:48:22;;;;;;;7.00;6.50;;;19.00;99.90;;;;;;4955510;28;20625;-66
2021/06/03 01:50:52;;;;;;;6.90;6.40;;;19.00;99.90;;;;;;4957846;28;20757;-67
2021/06/03 01:53:20;;;;;;;7.23;6.73;;;19.00;99.90;;;;;;4957361;28;20637;-66
2021/06/03 01:55:46;;;;;;;8.17;7.30;;;19.00;99.90;;;;;;4959046;28;20716;-66
2021/06/03 01:58:12;;;;;;;6.77;6.27;;;18.90;99.90;;;;;;4960266;28;20721;-66
2021/06/03 02:00:38;;;;;;;6.80;6.20;;;18.90;99.90;;;;;;4959458;28;20668;-66
2021/06/03 02:03:03;;;;;;;7.10;6.50;;;18.80;99.90;;;;;;4966961;28;20634;-66
2021/06/03 02:05:29;;;;;;;6.53;6.03;;;18.90;99.90;;;;;;4959492;28;20614;-66
2021/06/03 02:07:55;;;;;;;7.30;6.77;;;18.80;99.90;;;;;;4960563;28;20304;-66
2021/06/03 02:10:23;;;;;;;7.10;6.50;;;18.90;99.90;;;;;;4959052;28;24213;-65
2021/06/03 02:13:11;;;;;;;7.60;6.90;;;18.80;99.90;;;;;;4960980;28;20635;-66
2021/06/03 02:15:44;;;;;;;7.13;6.53;;;18.80;99.90;;;;;;4959099;28;20716;-66
2021/06/03 02:18:13;;;;;;;7.30;6.70;;;18.80;99.90;;;;;;4969042;28;20687;-66
2021/06/03 02:20:42;;;;;;;6.60;6.10;;;18.80;99.90;;;;;;4961997;28;20648;-66
2021/06/03 02:23:12;;;;;;;6.83;6.33;;;18.80;99.90;;;;;;4963848;28;20960;-66
2021/06/03 02:25:38;;;;;;;7.53;7.03;;;18.80;99.90;;;;;;4965563;28;20628;-67
2021/06/03 02:28:04;;;;;;;8.27;7.57;;;18.70;99.90;;;;;;4974445;28;20621;-66
2021/06/03 02:30:34;;;;;;;7.90;7.13;;;18.70;99.90;;;;;;4967415;28;20305;-66
2021/06/03 02:33:00;;;;;;;7.90;7.30;;;18.70;99.90;;;;;;4963578;28;20621;-67
2021/06/03 02:35:29;;;;;;;7.43;6.90;;;18.70;99.90;;;;;;4964668;28;20636;-66
2021/06/03 02:37:54;;;;;;;7.27;6.67;;;18.60;99.90;;;;;;4957027;28;20671;-66
2021/06/03 02:40:23;;;;;;;7.47;6.90;;;18.70;99.90;;;;;;4963265;28;20950;-67
2021/06/03 02:42:52;;;;;;;8.10;7.40;;;18.70;99.90;;;;;;4956938;28;20759;-67
2021/06/03 02:45:22;;;;;;;8.00;7.40;;;18.60;99.90;;;;;;4957301;28;20628;-66
2021/06/03 02:47:48;;;;;;;7.73;7.20;;;18.60;99.90;;;;;;4960753;28;20621;-66
2021/06/03 02:50:20;;;;;;;7.77;7.10;;;18.60;99.90;;;;;;4967675;28;21224;-66
2021/06/03 02:52:48;;;;;;;7.27;6.77;;;18.60;99.90;;;;;;4966979;28;20679;-66
2021/06/03 02:55:17;;;;;;;7.90;7.30;;;18.60;99.90;;;;;;4962902;28;20737;-67
2021/06/03 02:57:42;;;;;;;7.70;7.20;;;18.50;99.90;;;;;;4969432;28;20740;-66
2021/06/03 03:00:12;;;;;;;7.30;6.70;;;18.50;99.90;;;;;;4963209;28;20701;-66
2021/06/03 03:02:38;;;;;;;7.20;6.50;;;18.50;99.90;;;;;;4966855;28;20209;-66
2021/06/03 03:05:05;;;;;;;7.70;7.10;;;18.50;99.90;;;;;;4963179;28;20733;-66
2021/06/03 03:07:32;;;;;;;7.20;6.70;;;18.50;99.90;;;;;;4965333;28;20190;-66
2021/06/03 03:09:58;;;;;;;7.07;6.57;;;18.50;99.90;;;;;;4976695;28;20652;-67
2021/06/03 03:12:24;;;;;;;7.20;6.60;;;18.40;99.90;;;;;;4962352;28;21444;-66
2021/06/03 03:14:50;;;;;;;7.80;7.10;;;18.40;99.90;;;;;;4959021;28;20783;-67
2021/06/03 03:17:15;;;;;;;6.57;6.17;;;18.40;99.90;;;;;;4953094;28;20292;-67
2021/06/03 03:19:43;;;;;;;7.20;6.70;;;18.40;99.90;;;;;;4962692;28;20226;-66
2021/06/03 03:22:08;;;;;;;7.83;6.83;;;18.50;99.90;;;;;;4955910;28;20183;-66
2021/06/03 03:24:36;;;;;;;8.50;7.80;;;18.40;99.90;;;;;;4967818;28;20724;-66
2021/06/03 03:27:03;;;;;;;7.90;7.30;;;18.40;99.90;;;;;;4959188;28;20189;-67
2021/06/03 03:29:28;;;;;;;7.80;7.20;;;18.40;99.90;;;;;;4959035;28;20672;-66
2021/06/03 03:31:56;;;;;;;8.20;7.60;;;18.40;99.90;;;;;;4955001;28;20940;-67
2021/06/03 03:34:21;;;;;;;8.27;7.67;;;18.30;99.90;;;;;;4957242;28;20221;-66
2021/06/03 03:36:47;;;;;;;8.23;7.53;;;18.40;99.90;;;;;;4969048;28;20629;-66
2021/06/03 03:39:13;;;;;;;7.90;7.20;;;18.30;99.90;;;;;;4965402;28;20301;-66
2021/06/03 03:41:39;;;;;;;8.10;7.50;;;18.30;99.90;;;;;;4962602;28;21014;-66
2021/06/03 03:44:05;;;;;;;8.10;7.40;;;18.30;99.90;;;;;;4966293;28;20502;-66
2021/06/03 03:46:31;;;;;;;8.10;7.30;;;18.40;99.90;;;;;;4957465;28;21255;-66
2021/06/03 03:48:56;;;;;;;7.60;7.10;;;18.30;99.90;;;;;;4965694;28;20329;-67
2021/06/03 03:51:23;;;;;;;8.03;7.37;;;18.40;99.90;;;;;;4962242;28;20619;-66
2021/06/03 03:53:48;;;;;;;8.50;7.80;;;18.40;99.90;;;;;;4957639;28;20299;-66
2021/06/03 03:56:14;;;;;;;9.43;8.73;;;18.40;99.90;;;;;;4963795;28;20731;-67
2021/06/03 03:58:43;;;;;;;7.90;7.33;;;18.40;99.90;;;;;;4959800;28;20222;-66
2021/06/03 04:01:15;;;;;;;6.63;6.13;;;18.50;99.90;;;;;;4956937;28;20186;-67
2021/06/03 04:03:41;;;;;;;7.97;7.17;;;18.60;99.90;;;;;;4967764;28;20692;-67
2021/06/03 04:06:07;;;;;;;7.90;7.30;;;18.50;99.90;;;;;;4960936;28;20649;-66
2021/06/03 04:08:33;;;;;;;8.20;7.50;;;18.50;99.90;;;;;;4960942;28;20618;-67
2021/06/03 04:11:01;;;;;;;8.30;7.30;;;18.60;99.90;;;;;;4958425;28;20664;-67
2021/06/03 04:13:27;;;;;;;7.77;7.17;;;18.60;99.90;;;;;;4959419;28;20359;-66
2021/06/03 04:15:54;;;;;;;8.27;7.47;;;18.60;99.90;;;;;;4959417;28;21145;-66
2021/06/03 04:18:25;;;;;;;7.70;7.20;;;18.70;99.90;;;;;;4962824;28;20210;-66
2021/06/03 04:20:50;;;;;;;8.63;8.03;;;18.70;99.90;;;;;;4973037;28;20653;-66
2021/06/03 04:23:16;;;;;;;7.80;7.20;;;18.70;99.90;;;;;;4973790;28;20629;-66
2021/06/03 04:25:41;;;;;;;8.03;7.40;;;18.80;99.90;;;;;;4971164;28;20198;-66
2021/06/03 04:28:07;;;;;;;8.83;8.13;;;18.80;99.90;;;;;;4973910;28;20198;-67
2021/06/03 04:30:34;;;;;;;8.00;7.30;;;18.80;99.90;;;;;;4962590;28;20538;-67
2021/06/03 04:33:00;;;;;;;9.10;8.40;;;18.70;99.90;;;;;;4958805;28;20190;-66
2021/06/03 04:35:27;;;;;;;8.03;7.37;;;18.80;99.90;;;;;;4961421;28;20612;-66
2021/06/03 04:37:53;;;;;;;8.10;7.40;;;18.80;99.90;;;;;;4960915;28;20319;-66
2021/06/03 04:40:23;;;;;;;8.13;7.53;;;18.80;99.90;;;;;;4952400;28;21313;-66
2021/06/03 04:42:49;;;;;;;8.00;7.30;;;18.80;99.90;;;;;;4951102;28;20630;-67
2021/06/03 04:45:17;;;;;;;8.33;7.67;;;18.80;99.90;;;;;;4958465;28;20621;-66
2021/06/03 04:47:44;;;;;;;8.17;7.57;;;18.80;99.90;;;;;;4957983;28;20640;-66
2021/06/03 04:50:13;;;;;;;8.00;7.37;;;18.80;99.90;;;;;;4967337;28;20649;-67
2021/06/03 04:52:42;;;;;;;8.13;7.53;;;18.90;99.90;;;;;;4961057;28;20629;-66
2021/06/03 04:55:17;;;;;;;8.27;7.60;;;18.80;99.90;;;;;;4961298;28;21019;-67
2021/06/03 04:57:44;;;;;;;8.50;7.90;;;18.90;99.90;;;;;;4961845;28;20670;-67
2021/06/03 05:00:18;;;;;;;8.00;7.40;;;18.90;99.90;;;;;;4963766;28;20677;-66
2021/06/03 05:02:50;;;;;;;8.77;7.97;;;19.00;99.90;;;;;;4959276;28;20889;-65
2021/06/03 05:05:16;;;;;;;8.40;7.80;;;19.00;99.90;;;;;;4964099;28;20978;-66
2021/06/03 05:07:43;;;;;;;8.87;8.07;;;19.10;99.90;;;;;;4960665;28;20617;-67
2021/06/03 05:10:11;;;;;;;8.10;7.50;;;19.10;99.90;;;;;;4969384;28;20304;-65
2021/06/03 05:12:40;;;;;;;8.57;7.77;;;19.10;99.90;;;;;;4961640;28;21054;-65
2021/06/03 05:15:07;;;;;;;8.63;8.00;;;19.10;99.90;;;;;;4960302;28;20766;-66
2021/06/03 05:17:37;;;;;;;8.87;8.27;;;19.10;99.90;;;;;;4958043;28;20707;-66
2021/06/03 05:20:06;;;;;;;8.87;8.07;;;19.20;99.90;;;;;;4961905;28;20703;-66
2021/06/03 05:22:32;;;;;;;8.30;7.70;;;19.20;99.90;;;;;;4956027;28;20655;-66
2021/06/03 05:24:58;;;;;;;8.13;7.53;;;19.20;99.90;;;;;;4959177;28;20692;-66
2021/06/03 05:27:24;;;;;;;8.43;7.63;;;19.20;99.90;;;;;;4956375;28;20622;-68
2021/06/03 05:29:49;;;;;;;8.50;7.77;;;19.20;99.90;;;;;;4954612;28;20269;-66
2021/06/03 05:32:15;;;;;;;7.80;7.23;;;19.10;99.90;;;;;;4968205;28;23158;-66
2021/06/03 05:34:40;;;;;;;8.40;7.80;;;19.20;99.90;;;;;;4966044;28;20233;-66
2021/06/03 05:37:06;;;;;;;8.40;7.70;;;19.20;99.90;;;;;;4965873;28;21220;-67
2021/06/03 05:39:31;;;;;;;8.80;8.10;;;19.20;99.90;;;;;;4962910;28;20253;-67
2021/06/03 05:42:00;;;;;;;8.13;7.50;;;19.20;99.90;;;;;;4967413;28;20710;-67
2021/06/03 05:44:28;;;;;;;8.60;7.90;;;19.20;99.90;;;;;;4974597;28;20215;-67
2021/06/03 05:46:54;;;;;;;9.00;8.13;;;19.30;99.90;;;;;;4976394;28;20960;-67
2021/06/03 05:49:20;;;;;;;8.50;7.90;;;19.30;99.90;;;;;;4991195;28;20653;-67
2021/06/03 05:51:48;;;;;;;8.87;8.07;;;19.30;99.90;;;;;;4970815;28;20206;-67
2021/06/03 05:54:14;;;;;;;8.60;7.90;;;19.30;99.90;;;;;;4967973;28;20426;-67
2021/06/03 05:56:40;;;;;;;11.17;8.30;;;19.30;99.90;;;;;;4975100;28;20736;-67
2021/06/03 05:59:08;;;;;;;8.23;7.63;;;19.40;99.90;;;;;;4977895;28;20692;-67
2021/06/03 06:01:36;;;;;;;8.53;7.93;;;19.40;99.90;;;;;;4972198;28;20209;-67
2021/06/03 06:06:31;;;;;;;8.87;8.13;;;19.40;99.90;;;;;;4962317;28;21701;-67
2021/06/03 06:09:04;;;;;;;8.57;7.87;;;19.50;99.90;;;;;;4974722;28;20734;-67
2021/06/03 06:11:33;;;;;;;9.10;8.20;;;19.40;99.90;;;;;;4974874;28;20621;-67
2021/06/03 06:14:01;;;;;;;9.07;8.13;;;19.50;99.90;;;;;;4975274;28;20645;-67
2021/06/03 06:16:30;;;;;;;9.07;8.33;;;19.50;99.90;;;;;;4972905;28;20633;-67
2021/06/03 06:18:55;;;;;;;8.50;7.80;;;19.50;99.90;;;;;;4978141;28;20669;-67
2021/06/03 06:21:22;;;;;;;8.70;7.80;;;19.50;99.90;;;;;;4978436;28;20679;-67
2021/06/03 06:23:49;;;;;;;8.33;7.63;;;19.50;99.90;;;;;;4979026;28;20229;-67
2021/06/03 06:26:15;;;;;;;9.07;8.20;;;19.50;99.90;;;;;;4974298;28;21206;-67
2021/06/03 06:28:43;;;;;;;8.63;8.03;;;19.60;99.90;;;;;;4972273;28;20645;-66
2021/06/03 06:31:09;;;;;;;8.80;8.00;;;19.50;99.90;;;;;;4976337;28;20628;-66
2021/06/03 06:33:35;;;;;;;8.17;7.47;;;19.50;99.90;;;;;;4975016;28;21201;-66
2021/06/03 06:36:02;;;;;;;8.70;7.90;;;19.60;99.90;;;;;;4970778;28;20195;-67
2021/06/03 06:38:28;;;;;;;8.40;7.70;;;19.60;99.90;;;;;;4973515;28;20655;-66
2021/06/03 06:40:54;;;;;;;8.77;7.77;;;19.60;99.90;;;;;;4976746;28;21239;-66
2021/06/03 06:43:20;;;;;;;8.90;8.07;;;19.70;99.90;;;;;;4976872;28;20289;-66
2021/06/03 06:45:53;;;;;;;9.57;8.60;;;19.70;99.90;;;;;;4980158;28;20713;-66
2021/06/03 06:48:18;;;;;;;9.10;8.20;;;19.70;99.90;;;;;;4970578;28;20213;-66
2021/06/03 06:50:51;;;;;;;8.00;7.40;;;19.70;99.90;;;;;;4972410;28;20676;-66
2021/06/03 06:53:19;;;;;;;8.73;7.93;;;19.70;99.90;;;;;;4973272;28;20277;-66
2021/06/03 06:55:46;;;;;;;10.47;8.23;;;19.70;99.90;;;;;;4978424;28;20629;-67
2021/06/03 06:58:17;;;;;;;8.93;8.10;;;19.80;99.90;;;;;;4983270;28;20628;-67
2021/06/03 07:00:46;;;;;;;26.70;9.90;;;19.80;99.90;;;;;;4976935;28;20711;-67
2021/06/03 07:03:11;;;;;;;18.17;9.60;;;19.80;99.90;;;;;;4979974;28;20720;-67
2021/06/03 07:05:40;;;;;;;60.63;13.77;;;19.90;99.90;;;;;;4980015;28;20717;-67
2021/06/03 07:08:06;;;;;;;106.60;19.27;;;19.90;99.90;;;;;;4979235;28;20214;-66
2021/06/03 07:10:34;;;;;;;26.73;10.80;;;20.00;99.90;;;;;;4975954;28;21025;-66
2021/06/03 07:13:00;;;;;;;27.50;11.00;;;20.00;99.90;;;;;;4977173;28;20653;-66
2021/06/03 07:15:26;;;;;;;10.13;8.17;;;20.10;99.90;;;;;;4973328;28;20656;-66
2021/06/03 07:17:53;;;;;;;10.60;8.50;;;20.20;99.90;;;;;;4979751;28;20220;-66
2021/06/03 07:20:19;;;;;;;9.47;8.67;;;20.20;99.90;;;;;;4973970;28;20665;-67
2021/06/03 07:22:50;;;;;;;9.33;8.50;;;20.20;99.90;;;;;;4968501;28;20675;-66
2021/06/03 07:25:19;;;;;;;8.70;7.87;;;20.30;99.90;;;;;;4994347;28;20642;-66
2021/06/03 07:27:48;;;;;;;9.07;8.27;;;20.40;99.90;;;;;;4971464;28;20617;-66
2021/06/03 07:30:15;;;;;;;8.70;7.90;;;20.40;99.90;;;;;;4980470;28;20663;-66
2021/06/03 07:32:41;;;;;;;8.87;8.07;;;20.40;99.90;;;;;;4978455;28;20625;-66
2021/06/03 07:35:09;;;;;;;9.30;8.40;;;20.50;99.90;;;;;;4978707;28;21090;-66
2021/06/03 07:37:40;;;;;;;8.83;7.97;;;20.60;99.90;;;;;;4971257;28;20202;-68
2021/06/03 07:40:11;;;;;;;9.90;9.10;;;20.70;99.90;;;;;;4979044;28;20668;-67
2021/06/03 07:42:37;;;;;;;8.90;8.10;;;20.80;99.90;;;;;;4978590;28;20679;-67
2021/06/03 07:45:09;;;;;;;8.80;8.10;;;20.90;99.90;;;;;;4978207;28;20612;-66
2021/06/03 07:47:35;;;;;;;8.70;8.00;;;20.90;99.90;;;;;;4975417;28;20716;-67
2021/06/03 07:50:02;;;;;;;7.87;7.37;;;21.00;99.90;;;;;;4975971;28;21242;-67
2021/06/03 07:52:28;;;;;;;7.97;7.20;;;21.10;99.90;;;;;;4979240;28;20621;-68
2021/06/03 07:54:53;;;;;;;8.03;7.33;;;21.20;99.90;;;;;;4993767;28;20974;-66
2021/06/03 07:57:19;;;;;;;8.57;7.80;;;21.20;99.90;;;;;;4979989;28;20194;-66
2021/06/03 07:59:44;;;;;;;8.63;7.93;;;21.40;99.90;;;;;;4979618;28;20321;-66
2021/06/03 08:02:10;;;;;;;8.33;7.73;;;21.50;99.90;;;;;;4990605;28;20194;-67
2021/06/03 08:04:36;;;;;;;8.87;7.97;;;21.60;99.90;;;;;;4983904;28;20217;-67
2021/06/03 08:07:04;;;;;;;8.43;7.83;;;21.70;99.90;;;;;;4974571;28;20290;-66
2021/06/03 08:09:29;;;;;;;9.07;8.27;;;21.70;99.90;;;;;;4976869;28;20221;-66
2021/06/03 08:11:55;;;;;;;8.20;7.60;;;21.80;99.90;;;;;;4992320;28;20677;-65
2021/06/03 08:14:21;;;;;;;8.27;7.60;;;21.90;99.90;;;;;;4980891;28;20217;-66
2021/06/03 08:16:47;;;;;;;9.03;7.93;;;22.00;99.90;;;;;;4978619;28;20277;-66
2021/06/03 08:19:16;;;;;;;8.83;7.93;;;22.10;99.90;;;;;;4988986;28;20676;-66
2021/06/03 08:21:44;;;;;;;8.13;7.53;;;22.10;99.90;;;;;;4990813;28;20300;-66
2021/06/03 08:24:09;;;;;;;8.63;7.93;;;22.10;99.90;;;;;;4975739;28;20665;-66
2021/06/03 08:26:35;;;;;;;8.20;7.60;;;22.20;99.90;;;;;;4980534;28;21118;-66
2021/06/03 08:29:01;;;;;;;8.40;7.80;;;22.30;99.90;;;;;;4976654;28;20245;-66
2021/06/03 08:31:27;;;;;;;7.80;7.30;;;22.40;99.90;;;;;;4976825;28;21486;-66
2021/06/03 08:33:53;;;;;;;7.90;7.27;;;22.50;99.90;;;;;;4975588;28;20227;-66
2021/06/03 08:36:21;;;;;;;8.03;7.43;;;22.60;99.90;;;;;;4986733;28;20628;-66
2021/06/03 08:38:46;;;;;;;7.90;7.30;;;22.70;99.90;;;;;;4973738;28;20661;-67
2021/06/03 08:41:12;;;;;;;7.60;7.00;;;22.70;99.90;;;;;;4977122;28;20632;-67
2021/06/03 08:43:38;;;;;;;8.17;7.50;;;22.80;99.90;;;;;;4988948;28;20226;-66
2021/06/03 08:46:04;;;;;;;7.73;7.17;;;23.00;99.90;;;;;;4971337;28;21168;-65
2021/06/03 08:48:30;;;;;;;8.30;7.50;;;23.00;99.90;;;;;;4980263;28;20222;-66
2021/06/03 08:51:00;;;;;;;8.53;7.60;;;23.00;99.90;;;;;;4974572;28;20627;-67
2021/06/03 08:53:26;;;;;;;8.10;7.50;;;23.20;99.90;;;;;;4975414;28;20661;-67
2021/06/03 08:58:37;;;;;;;8.53;7.70;;;23.30;99.90;;;;;;4977471;28;20698;-67
2021/06/03 09:01:05;;;;;;;7.60;7.10;;;23.30;99.90;;;;;;4990443;28;20638;-66
2021/06/03 09:03:32;;;;;;;8.17;7.53;;;23.40;99.90;;;;;;4974315;28;21039;-67
2021/06/03 09:05:58;;;;;;;8.50;7.80;;;23.40;99.90;;;;;;4975446;28;21181;-67
2021/06/03 09:08:29;;;;;;;8.40;7.60;;;23.40;99.90;;;;;;4977817;28;20625;-67
2021/06/03 09:10:57;;;;;;;7.63;7.10;;;23.50;99.90;;;;;;4978017;28;20609;-67
2021/06/03 09:13:29;;;;;;;8.13;7.53;;;23.60;99.90;;;;;;4978442;28;20629;-67
2021/06/03 09:16:00;;;;;;;7.63;6.97;;;23.70;99.90;;;;;;4977157;28;20606;-67
2021/06/03 09:18:32;;;;;;;7.40;6.90;;;23.80;99.90;;;;;;4976688;28;20721;-67
2021/06/03 09:21:15;;;;;;;7.67;7.17;;;23.90;99.90;;;;;;4973787;28;21076;-67
2021/06/03 09:23:56;;;;;;;8.87;8.10;;;23.90;99.90;;;;;;4970672;28;20645;-67
2021/06/03 09:26:24;;;;;;;8.30;7.50;;;24.00;99.90;;;;;;4973991;28;20987;-67
2021/06/03 09:28:52;;;;;;;7.67;7.17;;;24.00;99.90;;;;;;4978570;28;21005;-67
2021/06/03 09:31:23;;;;;;;8.43;7.57;;;24.00;99.90;;;;;;4978005;28;21208;-67
2021/06/03 09:33:48;;;;;;;7.63;7.03;;;24.10;99.90;;;;;;4977072;28;20629;-67
2021/06/03 09:36:19;;;;;;;8.43;7.80;;;24.20;99.90;;;;;;4974887;28;20708;-67
2021/06/03 09:38:55;;;;;;;7.90;7.40;;;24.20;99.90;;;;;;4975339;28;20245;-67
2021/06/03 09:41:24;;;;;;;7.67;7.07;;;24.30;99.90;;;;;;4976396;28;20617;-67
2021/06/03 09:44:07;;;;;;;8.00;7.30;;;24.30;99.90;;;;;;4974402;28;21212;-67
2021/06/03 09:46:38;;;;;;;7.97;7.37;;;24.30;99.90;;;;;;4975557;28;20612;-67
2021/06/03 09:49:06;;;;;;;7.27;6.70;;;24.30;99.90;;;;;;4978674;28;20637;-67
2021/06/03 09:51:37;;;;;;;7.87;7.27;;;24.30;99.90;;;;;;4986857;28;21390;-67
2021/06/03 09:54:15;;;;;;;7.77;7.17;;;24.20;99.90;;;;;;4975213;28;20998;-67
2021/06/03 09:56:45;;;;;;;8.60;7.50;;;24.20;99.90;;;;;;4978300;28;20633;-67
2021/06/03 09:59:35;;;;;;;7.27;6.80;;;24.20;99.90;;;;;;4975915;28;20661;-67
2021/06/03 10:02:11;;;;;;;7.10;6.60;;;24.20;99.90;;;;;;4977624;28;20604;-67
2021/06/03 10:04:43;;;;;;;7.73;7.13;;;24.10;99.90;;;;;;4976432;28;20637;-67
2021/06/03 10:07:18;;;;;;;8.00;7.40;;;24.20;99.90;;;;;;4977394;28;20633;-67
2021/06/03 10:09:56;;;;;;;7.60;7.00;;;24.00;99.90;;;;;;4975472;28;21327;-67
2021/06/03 10:12:25;;;;;;;7.57;6.67;;;24.00;99.90;;;;;;4979801;28;21185;-67
2021/06/03 10:14:56;;;;;;;7.27;6.70;;;24.00;99.90;;;;;;4990797;28;21327;-67
2021/06/03 10:17:25;;;;;;;7.20;6.67;;;24.10;99.90;;;;;;4972372;28;20756;-67
2021/06/03 10:19:52;;;;;;;7.70;7.10;;;24.10;99.90;;;;;;4976243;28;20756;-67
2021/06/03 10:22:23;;;;;;;6.97;6.47;;;24.10;99.90;;;;;;4977810;28;21289;-67
2021/06/03 10:24:56;;;;;;;7.80;7.30;;;24.10;99.90;;;;;;4975345;28;20692;-65
2021/06/03 10:27:25;;;;;;;7.30;6.80;;;24.10;99.90;;;;;;4982893;28;20624;-66
2021/06/03 10:29:52;;;;;;;7.70;7.07;;;24.10;99.90;;;;;;4981948;28;21609;-67
2021/06/03 10:32:21;;;;;;;8.57;7.97;;;24.10;99.90;;;;;;4980808;28;20614;-67
2021/06/03 10:34:47;;;;;;;8.57;7.93;;;24.00;99.90;;;;;;4980380;28;20699;-67
2021/06/03 10:37:14;;;;;;;7.93;7.20;;;24.00;99.90;;;;;;4975168;28;20615;-67
2021/06/03 10:39:43;;;;;;;7.60;7.00;;;24.00;99.90;;;;;;4978824;28;20664;-67
2021/06/03 10:42:14;;;;;;;9.70;7.37;;;24.00;99.90;;;;;;4979826;28;20617;-67
2021/06/03 10:44:43;;;;;;;8.47;7.53;;;24.00;99.90;;;;;;4986236;28;20620;-67
2021/06/03 10:47:13;;;;;;;7.70;7.20;;;24.00;99.90;;;;;;4993420;28;20625;-67
2021/06/03 10:49:40;;;;;;;8.17;7.37;;;24.00;99.90;;;;;;4978113;28;20680;-67
2021/06/03 10:52:07;;;;;;;8.10;7.30;;;24.00;99.90;;;;;;4979198;28;20625;-66
2021/06/03 10:54:46;;;;;;;7.80;7.30;;;24.00;99.90;;;;;;4980552;28;21283;-67
2021/06/03 10:57:14;;;;;;;7.50;6.73;;;24.10;99.90;;;;;;4980925;28;20613;-67
2021/06/03 10:59:41;;;;;;;7.37;6.87;;;24.20;99.90;;;;;;4979149;28;20699;-67
2021/06/03 11:02:08;;;;;;;7.43;6.70;;;24.30;99.90;;;;;;4977059;28;20610;-66
2021/06/03 11:04:35;;;;;;;9.50;7.00;;;24.30;99.90;;;;;;4977913;28;20613;-66
2021/06/03 11:07:02;;;;;;;7.57;6.93;;;24.30;99.90;;;;;;4974244;28;20648;-67
2021/06/03 11:09:30;;;;;;;7.70;7.10;;;24.30;99.90;;;;;;4984946;28;20649;-67
2021/06/03 11:12:18;;;;;;;7.73;7.13;;;24.20;99.90;;;;;;4993358;28;20617;-68
2021/06/03 11:15:06;;;;;;;8.23;7.20;;;24.20;99.90;;;;;;4977963;28;20633;-67
2021/06/03 11:17:52;;;;;;;7.77;7.07;;;24.20;99.90;;;;;;4994358;28;20637;-67
2021/06/03 11:20:38;;;;;;;7.20;6.50;;;24.20;99.90;;;;;;4980524;28;20664;-67
2021/06/03 11:23:35;;;;;;;6.90;6.40;;;24.20;99.90;;;;;;4977470;28;20640;-67
2021/06/03 11:26:04;;;;;;;7.70;7.00;;;24.20;99.90;;;;;;4978294;28;20700;-66
2021/06/03 11:28:31;;;;;;;7.47;6.87;;;24.30;99.90;;;;;;4987208;28;20612;-66
2021/06/03 11:31:24;;;;;;;6.80;6.40;;;24.30;99.90;;;;;;4972552;28;20718;-68
2021/06/03 11:34:15;;;;;;;7.10;6.60;;;24.30;99.90;;;;;;4976638;28;20641;-66
2021/06/03 11:36:45;;;;;;;7.30;6.70;;;24.20;99.90;;;;;;4978892;28;21259;-67
2021/06/03 11:39:29;;;;;;;6.83;6.23;;;24.20;99.90;;;;;;4979756;28;20751;-67
2021/06/03 11:42:14;;;;;;;7.50;6.90;;;24.10;99.90;;;;;;4980040;28;21171;-67
2021/06/03 11:45:03;;;;;;;7.57;6.87;;;24.10;99.90;;;;;;4993730;28;20693;-67
2021/06/03 11:47:52;;;;;;;7.20;6.70;;;24.10;99.90;;;;;;4977384;28;20610;-66
2021/06/03 11:50:18;;;;;;;7.90;7.40;;;24.20;99.90;;;;;;4969498;28;20744;-66
2021/06/03 11:52:56;;;;;;;7.20;6.40;;;24.20;99.90;;;;;;4974466;28;20720;-67
2021/06/03 11:55:33;;;;;;;7.50;6.80;;;24.30;99.90;;;;;;4976645;28;20191;-67
2021/06/03 12:00:42;;;;;;;7.60;6.90;;;24.20;99.90;;;;;;4974273;28;20700;-66
2021/06/03 12:03:29;;;;;;;7.87;6.97;;;24.20;99.90;;;;;;4964907;28;21072;-66
2021/06/03 12:05:57;;;;;;;7.13;6.53;;;24.20;99.90;;;;;;4950434;28;21262;-66
2021/06/03 12:08:37;;;;;;;7.57;7.07;;;24.10;99.90;;;;;;4944598;28;20704;-65
2021/06/03 12:11:07;;;;;;;7.47;6.70;;;24.10;99.90;;;;;;4943956;28;20710;-66
2021/06/03 12:13:36;;;;;;;7.43;6.80;;;24.10;99.90;;;;;;4941726;28;20738;-66
2021/06/03 12:16:07;;;;;;;7.63;7.03;;;24.10;99.90;;;;;;4950698;28;20611;-67
2021/06/03 12:18:39;;;;;;;7.70;7.03;;;24.20;99.90;;;;;;4953134;28;20625;-66
2021/06/03 12:21:06;;;;;;;7.60;6.90;;;24.10;99.90;;;;;;4952344;28;20740;-67
2021/06/03 12:23:32;;;;;;;8.03;7.23;;;24.10;99.90;;;;;;4952316;28;21198;-67
2021/06/03 12:25:57;;;;;;;7.67;7.07;;;24.10;99.90;;;;;;4965423;28;20649;-67
2021/06/03 12:28:34;;;;;;;7.47;6.87;;;24.00;99.90;;;;;;4956483;28;20185;-67
2021/06/03 12:31:02;;;;;;;7.90;7.20;;;24.00;99.90;;;;;;4955961;28;20283;-67
2021/06/03 12:33:29;;;;;;;8.13;7.53;;;24.00;99.90;;;;;;4953718;28;20630;-67
2021/06/03 12:35:56;;;;;;;7.67;7.00;;;24.10;99.90;;;;;;4952871;28;20615;-68
2021/06/03 12:38:44;;;;;;;7.50;6.90;;;24.10;99.90;;;;;;4943045;28;20630;-67
2021/06/03 12:41:30;;;;;;;7.60;6.80;;;24.00;99.90;;;;;;4957173;28;21031;-66
2021/06/03 12:44:07;;;;;;;6.93;6.30;;;24.00;99.90;;;;;;4947499;28;20789;-67
2021/06/03 12:46:39;;;;;;;7.97;7.20;;;24.00;99.90;;;;;;4947879;28;20761;-69
2021/06/03 12:49:09;;;;;;;8.50;7.70;;;24.00;99.90;;;;;;4959205;28;20662;-68
2021/06/03 12:51:58;;;;;;;7.60;6.90;;;23.90;99.90;;;;;;4955673;28;20722;-67
2021/06/03 12:54:41;;;;;;;7.17;6.57;;;24.00;99.90;;;;;;4955837;28;20646;-67
2021/06/03 12:57:10;;;;;;;9.40;7.70;;;23.90;99.90;;;;;;4948170;28;21250;-67
2021/06/03 12:59:39;;;;;;;8.33;7.70;;;23.90;99.90;;;;;;4952649;28;20675;-67
2021/06/03 13:02:06;;;;;;;7.50;6.80;;;23.90;99.90;;;;;;4954214;28;21013;-67
2021/06/03 13:04:48;;;;;;;10.03;8.33;;;23.90;99.90;;;;;;4958971;28;20662;-67